createdAt,value
2018-03-01T00:02:11.161Z,3.10
2018-03-01T00:04:39.588Z,1.20
2018-03-01T00:07:07.153Z,1.10
2018-03-01T00:09:34.734Z,0.80
2018-03-01T00:12:02.387Z,-2.60
2018-03-01T00:14:30.048Z,-1.80
2018-03-01T00:16:58.398Z,0.70
2018-03-01T00:19:25.969Z,0.70
2018-03-01T00:21:53.536Z,-0.30
2018-03-01T00:24:21.124Z,-1.50
2018-03-01T00:26:48.685Z,0.80
2018-03-01T00:29:17.023Z,2.40
2018-03-01T00:31:44.602Z,2.30
2018-03-01T00:34:12.162Z,-1.40
2018-03-01T00:36:39.736Z,-1.40
2018-03-01T00:39:07.374Z,0.10
2018-03-01T00:41:34.944Z,-2.40
2018-03-01T00:44:02.501Z,-1.60
2018-03-01T00:46:30.094Z,-0.60
2018-03-01T00:48:58.432Z,-1.50
2018-03-01T00:51:26.003Z,-1.60
2018-03-01T00:53:53.584Z,-1.70
2018-03-01T00:56:21.146Z,-1.80
2018-03-01T00:58:48.711Z,0.80
2018-03-01T01:01:17.057Z,-0.70
2018-03-01T01:03:44.620Z,-0.80
2018-03-01T01:06:12.285Z,-3.20
2018-03-01T01:08:39.872Z,-2.40
2018-03-01T01:11:08.199Z,0.90
2018-03-01T01:13:35.776Z,0.80
2018-03-01T01:16:03.445Z,-2.30
2018-03-01T01:18:31.002Z,-0.20
2018-03-01T01:20:58.567Z,-0.30
2018-03-01T01:23:26.148Z,1.50
2018-03-01T01:25:53.704Z,3.50
2018-03-01T01:28:21.255Z,0.00
2018-03-01T01:30:49.085Z,-0.50
2018-03-01T01:33:16.672Z,-1.70
2018-03-01T01:35:44.238Z,-1.10
2018-03-01T01:38:11.813Z,-1.90
2018-03-01T01:40:39.369Z,0.50
2018-03-01T01:43:06.933Z,-1.40
2018-03-01T01:45:34.580Z,-1.20
2018-03-01T01:48:02.142Z,-0.40
2018-03-01T01:53:24.524Z,0.20
2018-03-01T01:55:52.889Z,1.90
2018-03-01T01:58:20.449Z,1.80
2018-03-01T02:00:48.016Z,2.10
2018-03-01T02:03:15.618Z,-1.60
2018-03-01T02:05:43.214Z,0.90
2018-03-01T02:08:10.774Z,0.30
2018-03-01T02:10:38.363Z,0.70
2018-03-01T02:13:06.690Z,-1.10
2018-03-01T02:15:34.285Z,-1.20
2018-03-01T02:18:01.943Z,0.80
2018-03-01T02:20:31.034Z,0.00
2018-03-01T02:22:58.604Z,-0.10
2018-03-01T02:25:26.181Z,0.10
2018-03-01T02:27:54.507Z,-0.10
2018-03-01T02:30:25.746Z,-0.20
2018-03-01T02:32:53.333Z,1.40
2018-03-01T02:35:20.901Z,-1.10
2018-03-01T02:37:48.492Z,-1.60
2018-03-01T02:40:16.068Z,-0.50
2018-03-01T02:42:44.383Z,3.60
2018-03-01T02:45:11.946Z,3.50
2018-03-01T02:47:39.518Z,-1.10
2018-03-01T02:50:07.184Z,-0.90
2018-03-01T02:52:34.755Z,0.50
2018-03-01T02:55:02.343Z,1.20
2018-03-01T02:57:30.671Z,-0.50
2018-03-01T02:59:58.317Z,-0.60
2018-03-01T03:02:25.905Z,2.40
2018-03-01T03:04:54.361Z,-0.70
2018-03-01T03:07:22.031Z,-0.80
2018-03-01T03:09:49.710Z,-1.00
2018-03-01T03:12:17.272Z,1.00
2018-03-01T03:14:44.932Z,1.90
2018-03-01T03:17:12.514Z,-0.30
2018-03-01T03:19:40.895Z,-1.00
2018-03-01T03:22:08.467Z,-1.10
2018-03-01T03:24:36.797Z,0.00
2018-03-01T03:27:04.367Z,-0.10
2018-03-01T03:29:32.012Z,2.80
2018-03-01T03:31:59.701Z,1.50
2018-03-01T03:34:27.280Z,-0.60
2018-03-01T03:36:54.840Z,-2.50
2018-03-01T03:39:22.430Z,-2.10
2018-03-01T03:41:49.995Z,-2.20
2018-03-01T03:44:17.678Z,-2.50
2018-03-01T03:46:45.253Z,-1.00
2018-03-01T03:49:12.820Z,-0.30
2018-03-01T03:51:40.375Z,-0.20
2018-03-01T03:54:08.037Z,0.30
2018-03-01T03:56:35.706Z,0.80
2018-03-01T03:59:03.260Z,2.80
2018-03-01T04:01:30.850Z,-0.50
2018-03-01T04:03:58.422Z,-0.60
2018-03-01T04:06:26.755Z,3.20
2018-03-01T04:08:54.409Z,3.10
2018-03-01T04:11:21.979Z,-0.10
2018-03-01T04:13:49.671Z,-0.50
2018-03-01T04:16:17.247Z,1.70
2018-03-01T04:18:45.574Z,-0.50
2018-03-01T04:21:13.168Z,-0.70
2018-03-01T04:23:40.737Z,1.50
2018-03-01T04:26:09.076Z,-1.70
2018-03-01T04:28:36.638Z,-1.70
2018-03-01T04:31:04.221Z,-2.20
2018-03-01T04:33:31.786Z,-1.10
2018-03-01T04:35:59.358Z,-1.00
2018-03-01T04:38:27.730Z,-0.30
2018-03-01T04:40:55.316Z,-0.40
2018-03-01T04:43:23.649Z,-2.60
2018-03-01T04:45:51.231Z,-2.60
2018-03-01T04:48:19.605Z,-2.40
2018-03-01T04:50:47.177Z,-2.50
2018-03-01T04:53:15.506Z,-2.10
2018-03-01T04:55:43.125Z,-2.20
2018-03-01T04:58:12.180Z,-3.70
2018-03-01T05:00:39.751Z,-3.70
2018-03-01T05:03:07.312Z,-2.80
2018-03-01T05:05:34.879Z,-1.20
2018-03-01T05:08:02.444Z,-2.20
2018-03-01T05:10:30.001Z,-0.30
2018-03-01T05:12:57.559Z,-0.60
2018-03-01T05:15:25.153Z,-0.30
2018-03-01T05:17:53.475Z,-1.50
2018-03-01T05:20:21.049Z,-1.60
2018-03-01T05:22:48.735Z,0.90
2018-03-01T05:25:17.071Z,2.70
2018-03-01T05:27:44.621Z,2.60
2018-03-01T05:30:12.174Z,0.10
2018-03-01T05:32:39.737Z,-0.40
2018-03-01T05:35:07.306Z,1.90
2018-03-01T05:37:34.879Z,-1.10
2018-03-01T05:40:02.458Z,-2.30
2018-03-01T05:42:30.014Z,-0.60
2018-03-01T05:44:57.618Z,0.00
2018-03-01T05:47:25.948Z,-1.80
2018-03-01T05:49:53.508Z,-1.90
2018-03-01T05:52:21.177Z,-1.20
2018-03-01T05:57:35.849Z,-0.60
2018-03-01T06:00:03.583Z,0.10
2018-03-01T06:02:31.126Z,-1.70
2018-03-01T06:04:58.797Z,-2.00
2018-03-01T06:07:26.340Z,-1.60
2018-03-01T06:09:53.895Z,-1.60
2018-03-01T06:12:21.479Z,-3.20
2018-03-01T06:14:49.031Z,-0.90
2018-03-01T06:17:16.663Z,-1.20
2018-03-01T06:19:44.229Z,-3.00
2018-03-01T06:22:11.836Z,-3.80
2018-03-01T06:24:39.616Z,-0.60
2018-03-01T06:27:07.457Z,0.30
2018-03-01T06:29:35.205Z,-0.20
2018-03-01T06:32:02.930Z,-2.70
2018-03-01T06:34:30.682Z,-3.40
2018-03-01T06:36:58.425Z,-1.70
2018-03-01T06:39:26.270Z,-0.40
2018-03-01T06:41:53.979Z,-1.90
2018-03-01T06:44:21.541Z,-2.70
2018-03-01T06:46:49.209Z,-2.90
2018-03-01T06:49:16.779Z,-1.80
2018-03-01T06:51:44.444Z,-2.10
2018-03-01T06:54:11.992Z,-2.80
2018-03-01T06:56:39.621Z,-2.20
2018-03-01T06:59:07.447Z,-2.00
2018-03-01T07:01:35.181Z,-3.60
2018-03-01T07:04:03.453Z,-3.20
2018-03-01T07:06:31.010Z,1.50
2018-03-01T07:08:58.566Z,2.80
2018-03-01T07:11:26.132Z,0.20
2018-03-01T07:13:53.685Z,-1.50
2018-03-01T07:16:21.494Z,-1.20
2018-03-01T07:18:49.065Z,-1.90
2018-03-01T07:21:17.387Z,-1.20
2018-03-01T07:23:44.929Z,-1.30
2018-03-01T07:26:12.491Z,-0.20
2018-03-01T07:28:40.035Z,-0.60
2018-03-01T07:31:07.584Z,-1.20
2018-03-01T07:33:35.215Z,-1.70
2018-03-01T07:36:02.776Z,-1.80
2018-03-01T07:38:30.421Z,-1.80
2018-03-01T07:40:58.002Z,-1.20
2018-03-01T07:43:25.564Z,-1.90
2018-03-01T07:45:53.422Z,0.60
2018-03-01T07:48:21.172Z,-0.20
2018-03-01T07:50:48.716Z,0.30
2018-03-01T07:53:16.258Z,-0.20
2018-03-01T07:55:43.835Z,-0.90
2018-03-01T07:58:11.630Z,-3.00
2018-03-01T08:00:39.175Z,-1.90
2018-03-01T08:03:06.843Z,1.30
2018-03-01T08:05:34.393Z,-1.80
2018-03-01T08:08:02.341Z,-2.50
2018-03-01T08:10:29.920Z,1.60
2018-03-01T08:12:57.450Z,0.60
2018-03-01T08:15:25.029Z,1.40
2018-03-01T08:17:52.592Z,-0.30
2018-03-01T08:20:20.150Z,-2.40
2018-03-01T08:22:47.691Z,-3.10
2018-03-01T08:25:15.497Z,-1.50
2018-03-01T08:27:43.257Z,-2.00
2018-03-01T08:30:11.058Z,0.30
2018-03-01T08:32:39.397Z,-1.60
2018-03-01T08:35:06.930Z,-1.70
2018-03-01T08:37:34.584Z,-1.80
2018-03-01T08:40:02.384Z,-1.90
2018-03-01T08:42:31.050Z,-1.70
2018-03-01T08:44:58.607Z,-1.90
2018-03-01T08:47:26.264Z,0.30
2018-03-01T08:49:54.071Z,-1.50
2018-03-01T08:52:21.626Z,-1.70
2018-03-01T08:54:50.191Z,0.30
2018-03-01T08:57:17.747Z,0.20
2018-03-01T08:59:45.289Z,-0.30
2018-03-01T09:02:12.830Z,2.40
2018-03-01T09:04:40.384Z,0.40
2018-03-01T09:07:09.007Z,2.70
2018-03-01T09:09:36.566Z,2.70
2018-03-01T09:12:04.120Z,1.80
2018-03-01T09:14:31.686Z,-0.80
2018-03-01T09:16:59.397Z,-1.60
2018-03-01T09:19:26.966Z,-1.90
2018-03-01T09:21:54.622Z,-0.20
2018-03-01T09:24:22.191Z,-0.10
2018-03-01T09:26:49.733Z,-0.60
2018-03-01T09:29:17.346Z,-1.40
2018-03-01T09:31:44.911Z,-0.60
2018-03-01T09:34:12.592Z,1.20
2018-03-01T09:36:41.024Z,1.20
2018-03-01T09:39:08.704Z,1.40
2018-03-01T09:41:36.261Z,-0.10
2018-03-01T09:44:03.815Z,0.00
2018-03-01T09:46:31.388Z,-0.80
2018-03-01T09:48:58.943Z,-0.50
2018-03-01T09:51:26.536Z,1.70
2018-03-01T09:53:54.309Z,2.40
2018-03-01T09:56:21.932Z,3.30
2018-03-01T09:58:49.940Z,5.10
2018-03-01T10:01:17.999Z,0.50
2018-03-01T10:03:45.947Z,-0.20
2018-03-01T10:06:13.546Z,0.60
2018-03-01T10:08:42.171Z,2.80
2018-03-01T10:11:09.857Z,2.70
2018-03-01T10:13:37.425Z,1.80
2018-03-01T10:16:04.976Z,0.10
2018-03-01T10:18:32.621Z,0.30
2018-03-01T10:21:00.264Z,1.20
2018-03-01T10:23:27.836Z,0.50
2018-03-01T10:25:55.603Z,-1.00
2018-03-01T10:28:23.362Z,1.00
2018-03-01T10:30:51.171Z,2.10
2018-03-01T10:33:18.721Z,1.90
2018-03-01T10:35:46.262Z,1.10
2018-03-01T10:38:14.051Z,0.80
2018-03-01T10:40:41.694Z,0.00
2018-03-01T10:43:09.280Z,1.40
2018-03-01T10:45:37.102Z,4.20
2018-03-01T10:48:04.650Z,3.70
2018-03-01T10:50:32.321Z,2.10
2018-03-01T10:53:00.471Z,2.70
2018-03-01T10:55:28.145Z,2.40
2018-03-01T10:57:55.923Z,2.30
2018-03-01T11:00:29.202Z,1.60
2018-03-01T11:02:56.964Z,3.60
2018-03-01T11:05:24.733Z,3.00
2018-03-01T11:07:52.473Z,3.00
2018-03-01T11:10:20.026Z,1.90
2018-03-01T11:12:47.572Z,3.10
2018-03-01T11:15:15.137Z,0.80
2018-03-01T11:17:42.685Z,1.70
2018-03-01T11:20:11.275Z,4.30
2018-03-01T11:22:38.821Z,4.20
2018-03-01T11:25:07.135Z,3.50
2018-03-01T11:27:34.851Z,3.50
2018-03-01T11:30:02.622Z,2.80
2018-03-01T11:32:30.342Z,2.00
2018-03-01T11:34:57.898Z,2.30
2018-03-01T11:37:25.442Z,3.40
2018-03-01T11:39:52.986Z,5.50
2018-03-01T11:42:20.532Z,4.40
2018-03-01T11:44:48.107Z,4.90
2018-03-01T11:47:15.656Z,4.80
2018-03-01T11:49:43.205Z,4.40
2018-03-01T11:52:10.961Z,3.00
2018-03-01T11:54:38.734Z,3.30
2018-03-01T11:57:06.272Z,4.80
2018-03-01T11:59:33.834Z,4.40
2018-03-01T12:02:01.390Z,5.30
2018-03-01T12:04:28.944Z,7.20
2018-03-01T12:06:56.510Z,6.80
2018-03-01T12:09:24.053Z,4.00
2018-03-01T12:11:51.608Z,4.20
2018-03-01T12:14:19.173Z,3.80
2018-03-01T12:16:46.768Z,2.90
2018-03-01T12:19:14.314Z,2.30
2018-03-01T12:21:43.045Z,3.70
2018-03-01T12:24:11.605Z,5.20
2018-03-01T12:26:39.178Z,5.10
2018-03-01T12:29:06.738Z,5.10
2018-03-01T12:31:34.320Z,5.70
2018-03-01T12:34:02.082Z,4.20
2018-03-01T12:36:29.641Z,4.00
2018-03-01T12:38:57.213Z,4.30
2018-03-01T12:41:24.762Z,4.70
2018-03-01T12:43:52.321Z,4.70
2018-03-01T12:46:19.993Z,5.40
2018-03-01T12:48:47.529Z,6.30
2018-03-01T12:51:15.081Z,7.00
2018-03-01T12:53:42.633Z,5.90
2018-03-01T12:56:10.187Z,6.50
2018-03-01T12:58:37.733Z,6.20
2018-03-01T13:01:05.278Z,6.50
2018-03-01T13:03:32.834Z,7.40
2018-03-01T13:06:01.164Z,5.60
2018-03-01T13:08:28.867Z,5.50
2018-03-01T13:10:56.434Z,5.90
2018-03-01T13:13:24.759Z,5.80
2018-03-01T13:15:52.453Z,5.70
2018-03-01T13:18:21.177Z,6.50
2018-03-01T13:20:48.915Z,6.30
2018-03-01T13:23:16.471Z,6.30
2018-03-01T13:25:44.811Z,6.80
2018-03-01T13:28:12.505Z,6.80
2018-03-01T13:30:44.673Z,6.70
2018-03-01T13:33:13.951Z,5.70
2018-03-01T13:35:41.523Z,5.60
2018-03-01T13:38:09.829Z,6.40
2018-03-01T13:40:37.518Z,6.30
2018-03-01T13:43:16.747Z,6.90
2018-03-01T13:45:47.110Z,6.10
2018-03-01T13:48:14.671Z,6.60
2018-03-01T13:50:42.231Z,7.30
2018-03-01T13:53:09.793Z,8.80
2018-03-01T13:55:37.358Z,7.90
2018-03-01T13:58:05.086Z,7.30
2018-03-01T14:00:32.650Z,6.80
2018-03-01T14:03:00.194Z,8.10
2018-03-01T14:05:27.744Z,8.70
2018-03-01T14:07:57.207Z,8.50
2018-03-01T14:10:24.782Z,7.00
2018-03-01T14:13:00.863Z,7.10
2018-03-01T14:15:28.402Z,7.60
2018-03-01T14:18:05.232Z,7.90
2018-03-01T14:20:40.072Z,6.00
2018-03-01T14:23:10.100Z,6.00
2018-03-01T14:25:43.340Z,7.10
2018-03-01T14:31:09.820Z,5.60
2018-03-01T14:33:38.164Z,5.90
2018-03-01T14:36:05.810Z,5.90
2018-03-01T14:38:33.394Z,6.10
2018-03-01T14:41:01.076Z,7.10
2018-03-01T14:43:29.414Z,5.20
2018-03-01T14:45:57.752Z,5.80
2018-03-01T14:48:26.083Z,5.50
2018-03-01T14:50:53.662Z,5.40
2018-03-01T14:53:21.230Z,4.90
2018-03-01T14:55:48.804Z,5.60
2018-03-01T14:58:17.163Z,4.70
2018-03-01T15:00:45.704Z,4.60
2018-03-01T15:03:13.479Z,4.90
2018-03-01T15:05:41.084Z,6.60
2018-03-01T15:08:08.637Z,4.50
2018-03-01T15:10:36.240Z,5.00
2018-03-01T15:13:03.794Z,4.50
2018-03-01T15:15:31.381Z,4.60
2018-03-01T15:17:58.972Z,4.80
2018-03-01T15:20:26.531Z,4.50
2018-03-01T15:22:54.083Z,4.90
2018-03-01T15:25:21.649Z,3.90
2018-03-01T15:27:49.217Z,3.60
2018-03-01T15:30:16.784Z,4.10
2018-03-01T15:32:44.351Z,4.70
2018-03-01T15:35:12.690Z,4.10
2018-03-01T15:37:40.258Z,4.00
2018-03-01T15:40:07.831Z,3.70
2018-03-01T15:42:35.390Z,4.00
2018-03-01T15:45:02.960Z,3.30
2018-03-01T15:47:30.540Z,4.10
2018-03-01T15:49:58.961Z,4.00
2018-03-01T15:52:26.527Z,3.90
2018-03-01T15:54:54.108Z,4.40
2018-03-01T15:57:21.776Z,4.00
2018-03-01T15:59:49.335Z,3.50
2018-03-01T16:02:16.927Z,3.40
2018-03-01T16:04:45.271Z,4.80
2018-03-01T16:07:12.828Z,4.80
2018-03-01T16:09:40.409Z,4.80
2018-03-01T16:12:07.975Z,4.50
2018-03-01T16:14:35.527Z,4.30
2018-03-01T16:17:03.105Z,3.40
2018-03-01T16:19:31.439Z,2.70
2018-03-01T16:21:59.028Z,2.60
2018-03-01T16:24:26.777Z,2.20
2018-03-01T16:26:54.347Z,2.10
2018-03-01T16:29:21.898Z,2.30
2018-03-01T16:31:49.558Z,3.50
2018-03-01T16:34:17.111Z,4.60
2018-03-01T16:36:44.744Z,3.80
2018-03-01T16:39:12.417Z,3.10
2018-03-01T16:41:39.974Z,2.20
2018-03-01T16:44:07.562Z,2.20
2018-03-01T16:46:35.159Z,2.30
2018-03-01T16:49:03.506Z,2.10
2018-03-01T16:51:31.063Z,2.00
2018-03-01T16:53:58.703Z,1.90
2018-03-01T16:56:26.280Z,2.40
2018-03-01T16:58:53.839Z,2.10
2018-03-01T17:01:21.409Z,2.20
2018-03-01T17:03:49.448Z,2.00
2018-03-01T17:06:16.992Z,1.70
2018-03-01T17:08:44.617Z,1.60
2018-03-01T17:11:12.193Z,2.90
2018-03-01T17:13:40.527Z,3.50
2018-03-01T17:16:08.120Z,3.40
2018-03-01T17:18:36.452Z,3.90
2018-03-01T17:21:04.144Z,3.90
2018-03-01T17:23:31.717Z,5.00
2018-03-01T17:25:59.282Z,4.60
2018-03-01T17:28:26.850Z,3.40
2018-03-01T17:30:55.192Z,3.10
2018-03-01T17:33:22.777Z,3.10
2018-03-01T17:35:50.344Z,2.90
2018-03-01T17:38:18.714Z,3.00
2018-03-01T17:40:46.320Z,2.90
2018-03-01T17:43:13.890Z,2.20
2018-03-01T17:45:41.555Z,2.30
2018-03-01T17:48:09.348Z,5.30
2018-03-01T17:50:36.919Z,5.20
2018-03-01T17:53:04.592Z,4.20
2018-03-01T17:55:32.156Z,3.80
2018-03-01T17:58:00.496Z,5.20
2018-03-01T18:00:28.099Z,5.10
2018-03-01T18:02:56.450Z,4.10
2018-03-01T18:05:24.009Z,4.10
2018-03-01T18:07:51.640Z,2.80
2018-03-01T18:10:19.306Z,3.30
2018-03-01T18:12:46.975Z,3.30
2018-03-01T18:15:14.534Z,1.90
2018-03-01T18:17:42.118Z,1.80
2018-03-01T18:20:09.747Z,3.10
2018-03-01T18:22:37.337Z,3.50
2018-03-01T18:25:04.998Z,4.20
2018-03-01T18:27:32.563Z,4.90
2018-03-01T18:30:00.161Z,4.20
2018-03-01T18:32:28.490Z,3.00
2018-03-01T18:34:56.045Z,3.00
2018-03-01T18:37:23.736Z,2.60
2018-03-01T18:39:51.498Z,4.90
2018-03-01T18:42:19.213Z,2.90
2018-03-01T18:44:47.525Z,2.20
2018-03-01T18:47:15.086Z,2.10
2018-03-01T18:49:42.663Z,1.30
2018-03-01T18:52:10.245Z,2.30
2018-03-01T18:54:38.593Z,2.90
2018-03-01T18:57:07.123Z,2.80
2018-03-01T18:59:35.546Z,1.50
2018-03-01T19:02:03.406Z,1.40
2018-03-01T19:04:30.976Z,3.10
2018-03-01T19:06:58.573Z,3.80
2018-03-01T19:09:26.994Z,5.50
2018-03-01T19:11:54.552Z,5.30
2018-03-01T19:14:22.135Z,3.10
2018-03-01T19:16:49.718Z,3.30
2018-03-01T19:19:17.274Z,1.70
2018-03-01T19:21:44.888Z,1.90
2018-03-01T19:24:12.490Z,2.70
2018-03-01T19:26:40.868Z,1.80
2018-03-01T19:29:08.480Z,1.80
2018-03-01T19:31:36.059Z,2.00
2018-03-01T19:34:03.608Z,1.40
2018-03-01T19:36:31.189Z,4.00
2018-03-01T19:38:58.749Z,2.10
2018-03-01T19:41:26.314Z,0.50
2018-03-01T19:43:53.879Z,0.30
2018-03-01T19:46:21.451Z,0.40
2018-03-01T19:48:49.037Z,1.10
2018-03-01T19:51:17.376Z,2.80
2018-03-01T19:53:45.034Z,2.80
2018-03-01T19:56:12.681Z,2.00
2018-03-01T19:58:40.980Z,2.60
2018-03-01T20:01:08.553Z,2.50
2018-03-01T20:03:36.119Z,3.30
2018-03-01T20:06:03.714Z,3.70
2018-03-01T20:08:32.027Z,3.50
2018-03-01T20:10:59.603Z,3.40
2018-03-01T20:13:27.189Z,4.10
2018-03-01T20:15:54.828Z,2.80
2018-03-01T20:18:22.527Z,3.80
2018-03-01T20:20:50.945Z,4.00
2018-03-01T20:23:18.525Z,3.90
2018-03-01T20:25:46.106Z,2.40
2018-03-01T20:28:13.719Z,1.30
2018-03-01T20:30:41.394Z,2.70
2018-03-01T20:33:08.992Z,1.90
2018-03-01T20:35:36.611Z,2.30
2018-03-01T20:38:04.143Z,3.20
2018-03-01T20:40:32.466Z,3.90
2018-03-01T20:43:00.014Z,3.80
2018-03-01T20:45:27.675Z,2.10
2018-03-01T20:47:55.261Z,4.20
2018-03-01T20:50:22.862Z,3.50
2018-03-01T20:52:51.201Z,4.40
2018-03-01T20:55:18.755Z,4.30
2018-03-01T20:57:46.321Z,4.00
2018-03-01T21:00:13.896Z,2.70
2018-03-01T21:02:41.443Z,1.40
2018-03-01T21:05:09.043Z,2.20
2018-03-01T21:07:37.375Z,2.80
2018-03-01T21:10:04.955Z,2.70
2018-03-01T21:12:32.519Z,1.80
2018-03-01T21:15:00.164Z,4.90
2018-03-01T21:17:27.839Z,3.10
2018-03-01T21:19:55.423Z,1.90
2018-03-01T21:22:23.740Z,2.80
2018-03-01T21:24:51.325Z,2.70
2018-03-01T21:27:18.900Z,2.40
2018-03-01T21:29:46.535Z,2.60
2018-03-01T21:32:14.253Z,3.20
2018-03-01T21:34:42.619Z,3.30
2018-03-01T21:37:10.959Z,2.10
2018-03-01T21:39:38.520Z,2.00
2018-03-01T21:42:06.198Z,2.00
2018-03-01T21:44:33.855Z,2.40
2018-03-01T21:47:07.576Z,1.90
2018-03-01T21:49:35.144Z,4.20
2018-03-01T21:52:03.469Z,2.20
2018-03-01T21:54:31.158Z,2.10
2018-03-01T21:56:58.726Z,3.00
2018-03-01T21:59:27.049Z,2.80
2018-03-01T22:01:54.671Z,2.70
2018-03-01T22:04:22.221Z,3.50
2018-03-01T22:06:49.806Z,2.80
2018-03-01T22:09:18.267Z,3.30
2018-03-01T22:11:45.834Z,3.30
2018-03-01T22:14:13.411Z,3.50
2018-03-01T22:16:41.761Z,2.30
2018-03-01T22:19:09.329Z,2.30
2018-03-01T22:21:38.823Z,4.20
2018-03-01T22:24:06.404Z,1.90
2018-03-01T22:26:33.957Z,1.90
2018-03-01T22:29:01.521Z,2.10
2018-03-01T22:31:29.104Z,3.60
2018-03-01T22:33:57.444Z,2.80
2018-03-01T22:36:25.026Z,2.70
2018-03-01T22:38:52.588Z,3.00
2018-03-01T22:41:20.143Z,3.60
2018-03-01T22:43:47.800Z,5.10
2018-03-01T22:46:15.401Z,4.50
2018-03-01T22:48:42.950Z,4.30
2018-03-01T22:51:11.276Z,3.10
2018-03-01T22:53:38.874Z,3.10
2018-03-01T22:56:07.199Z,4.90
2018-03-01T22:58:34.755Z,4.90
2018-03-01T23:01:02.947Z,2.80
2018-03-01T23:03:30.511Z,3.10
2018-03-01T23:05:58.074Z,2.30
2018-03-01T23:08:25.638Z,1.20
2018-03-01T23:10:54.764Z,3.00
2018-03-01T23:13:24.171Z,1.90
2018-03-01T23:15:52.521Z,1.90
2018-03-01T23:18:21.990Z,1.80
2018-03-01T23:20:49.586Z,2.60
2018-03-01T23:23:19.333Z,2.70
2018-03-01T23:25:48.660Z,2.80
2018-03-01T23:28:18.377Z,2.70
2018-03-01T23:30:48.013Z,4.60
2018-03-01T23:33:17.018Z,5.00
2018-03-01T23:35:44.623Z,4.80
2018-03-01T23:38:12.265Z,5.10
2018-03-01T23:40:42.076Z,3.00
2018-03-01T23:43:10.402Z,3.30
2018-03-01T23:45:37.973Z,3.20
2018-03-01T23:48:05.544Z,4.00
2018-03-01T23:50:33.107Z,3.50
2018-03-01T23:53:00.673Z,2.60
2018-03-01T23:55:28.218Z,1.50
2018-03-01T23:57:55.752Z,2.10
